createdAt,value
2023-04-27T00:00:50.835Z,51.12
2023-04-27T00:03:23.878Z,51.89
2023-04-27T00:05:56.213Z,51.73
2023-04-27T00:08:30.857Z,51.61
2023-04-27T00:11:02.594Z,51.75
2023-04-27T00:13:34.441Z,51.73
2023-04-27T00:16:07.339Z,51.71
2023-04-27T00:18:39.222Z,52.16
2023-04-27T00:21:11.018Z,52.25
2023-04-27T00:23:45.233Z,52.51
2023-04-27T00:26:17.008Z,52.28
2023-04-27T00:28:52.468Z,51.55
2023-04-27T00:31:24.315Z,52.14
2023-04-27T00:33:59.245Z,52.15
2023-04-27T00:36:34.280Z,51.29
2023-04-27T00:39:06.556Z,51.29
2023-04-27T00:41:42.041Z,51.34
2023-04-27T00:44:13.715Z,51.55
2023-04-27T00:46:45.426Z,51.73
2023-04-27T00:49:19.774Z,51.53
2023-04-27T00:51:51.869Z,51.29
2023-04-27T00:54:24.689Z,51.98
2023-04-27T00:56:56.541Z,51.61
2023-04-27T00:59:32.476Z,51.73
2023-04-27T01:02:04.352Z,52.54
2023-04-27T01:04:38.988Z,52.48
2023-04-27T01:07:13.925Z,52.82
2023-04-27T01:09:48.659Z,52.43
2023-04-27T01:12:23.536Z,52.63
2023-04-27T01:14:55.780Z,52.69
2023-04-27T01:17:29.245Z,52.42
2023-04-27T01:20:02.709Z,53.12
2023-04-27T01:22:34.438Z,53.03
2023-04-27T01:25:08.790Z,53.01
2023-04-27T01:27:40.937Z,52.97
2023-04-27T01:30:12.714Z,53.25
2023-04-27T01:32:44.473Z,53.42
2023-04-27T01:35:16.674Z,53.70
2023-04-27T01:37:48.397Z,53.76
2023-04-27T01:40:22.570Z,54.10
2023-04-27T01:42:54.322Z,53.89
2023-04-27T01:48:47.321Z,53.59
2023-04-27T01:51:23.888Z,53.94
2023-04-27T01:53:56.122Z,53.97
2023-04-27T01:56:31.022Z,54.47
2023-04-27T01:59:02.759Z,54.46
2023-04-27T02:01:35.791Z,54.68
2023-04-27T02:04:09.091Z,54.51
2023-04-27T02:06:41.450Z,54.11
2023-04-27T02:09:14.279Z,54.76
2023-04-27T02:11:46.161Z,54.54
2023-04-27T02:14:18.303Z,54.41
2023-04-27T02:16:54.761Z,54.47
2023-04-27T02:19:27.744Z,54.42
2023-04-27T02:21:59.531Z,54.65
2023-04-27T02:24:35.137Z,54.57
2023-04-27T02:27:06.905Z,55.07
2023-04-27T02:29:39.466Z,54.80
2023-04-27T02:32:11.799Z,54.31
2023-04-27T02:34:47.430Z,54.64
2023-04-27T02:37:19.153Z,54.41
2023-04-27T02:39:52.044Z,55.05
2023-04-27T02:42:23.759Z,54.87
2023-04-27T02:44:56.557Z,55.42
2023-04-27T02:47:33.921Z,55.21
2023-04-27T02:50:10.966Z,55.49
2023-04-27T02:52:44.222Z,55.71
2023-04-27T02:55:16.080Z,56.04
2023-04-27T02:57:47.924Z,55.53
2023-04-27T03:00:22.038Z,56.22
2023-04-27T03:02:53.873Z,55.74
2023-04-27T03:05:29.142Z,55.90
2023-04-27T03:08:00.895Z,55.98
2023-04-27T03:10:32.615Z,55.85
2023-04-27T03:13:04.277Z,55.68
2023-04-27T03:15:35.993Z,55.95
2023-04-27T03:18:07.844Z,56.25
2023-04-27T03:20:39.649Z,56.01
2023-04-27T03:23:12.092Z,55.99
2023-04-27T03:25:43.815Z,56.39
2023-04-27T03:28:15.916Z,55.87
2023-04-27T03:30:47.659Z,56.18
2023-04-27T03:33:27.096Z,56.36
2023-04-27T03:36:05.069Z,56.64
2023-04-27T03:38:37.106Z,56.35
2023-04-27T03:41:09.247Z,56.45
2023-04-27T03:43:40.995Z,56.67
2023-04-27T03:46:12.831Z,56.29
2023-04-27T03:48:48.287Z,56.87
2023-04-27T03:51:20.117Z,56.89
2023-04-27T03:53:51.981Z,56.97
2023-04-27T03:56:23.742Z,56.96
2023-04-27T03:58:59.330Z,56.66
2023-04-27T04:01:43.496Z,56.57
2023-04-27T04:04:15.389Z,56.51
2023-04-27T04:06:49.580Z,56.81
2023-04-27T04:09:24.489Z,56.34
2023-04-27T04:12:03.801Z,56.54
2023-04-27T04:14:35.930Z,56.41
2023-04-27T04:17:13.774Z,56.54
2023-04-27T04:19:49.146Z,56.59
2023-04-27T04:22:21.511Z,56.83
2023-04-27T04:24:53.960Z,57.02
2023-04-27T04:27:28.750Z,56.69
2023-04-27T04:30:00.582Z,56.83
2023-04-27T04:32:38.270Z,57.02
2023-04-27T04:35:12.381Z,56.85
2023-04-27T04:37:44.063Z,56.01
2023-04-27T04:40:15.908Z,56.17
2023-04-27T04:42:47.721Z,56.45
2023-04-27T04:45:20.503Z,56.11
2023-04-27T04:47:55.557Z,56.19
2023-04-27T04:50:31.804Z,55.98
2023-04-27T04:53:03.937Z,55.62
2023-04-27T04:55:39.867Z,55.85
2023-04-27T05:01:12.588Z,55.01
2023-04-27T05:03:45.948Z,54.88
2023-04-27T05:06:18.929Z,54.39
2023-04-27T05:08:55.981Z,53.74
2023-04-27T05:11:30.746Z,53.37
2023-04-27T05:14:02.374Z,53.33
2023-04-27T05:16:34.124Z,53.31
2023-04-27T05:19:06.195Z,52.75
2023-04-27T05:21:37.899Z,52.13
2023-04-27T05:24:09.712Z,51.25
2023-04-27T05:26:43.489Z,50.27
2023-04-27T05:29:15.762Z,49.90
2023-04-27T05:31:47.913Z,49.89
2023-04-27T05:34:20.172Z,49.18
2023-04-27T05:36:53.869Z,49.26
2023-04-27T05:39:26.745Z,48.29
2023-04-27T05:41:58.893Z,47.45
2023-04-27T05:44:31.147Z,46.65
2023-04-27T05:47:03.179Z,45.77
2023-04-27T05:49:35.018Z,45.22
2023-04-27T05:52:06.721Z,44.78
2023-04-27T05:54:38.558Z,44.36
2023-04-27T05:57:13.225Z,43.56
2023-04-27T05:59:45.025Z,43.54
2023-04-27T06:02:18.409Z,43.87
2023-04-27T06:04:50.188Z,43.68
2023-04-27T06:07:21.968Z,43.58
2023-04-27T06:09:55.815Z,42.79
2023-04-27T06:12:28.786Z,42.76
2023-04-27T06:15:00.629Z,41.80
2023-04-27T06:17:36.243Z,40.56
2023-04-27T06:20:14.520Z,40.35
2023-04-27T06:22:49.446Z,38.93
2023-04-27T06:25:24.405Z,38.44
2023-04-27T06:28:02.337Z,37.77
2023-04-27T06:30:38.909Z,37.58
2023-04-27T06:33:11.437Z,36.73
2023-04-27T06:35:47.630Z,36.62
2023-04-27T06:38:19.389Z,35.46
2023-04-27T06:40:54.461Z,35.24
2023-04-27T06:43:27.213Z,34.77
2023-04-27T06:45:59.751Z,34.24
2023-04-27T06:48:31.818Z,33.81
2023-04-27T06:51:03.720Z,32.80
2023-04-27T06:53:36.273Z,31.35
2023-04-27T06:56:14.560Z,31.97
2023-04-27T06:58:46.460Z,30.85
2023-04-27T07:01:18.199Z,30.67
2023-04-27T07:03:50.038Z,30.97
2023-04-27T07:06:26.016Z,29.76
2023-04-27T07:08:57.745Z,29.64
2023-04-27T07:11:30.878Z,29.00
2023-04-27T07:14:02.896Z,29.18
2023-04-27T08:00:16.133Z,28.10
2023-04-27T08:02:48.374Z,27.93
2023-04-27T08:05:21.951Z,28.20
2023-04-27T08:07:56.739Z,27.81
2023-04-27T08:10:34.576Z,27.11
2023-04-27T08:13:09.788Z,25.75
2023-04-27T08:15:41.547Z,26.81
2023-04-27T08:18:13.318Z,25.71
2023-04-27T08:20:45.112Z,26.68
2023-04-27T08:23:18.585Z,26.14
2023-04-27T08:25:51.625Z,25.49
2023-04-27T08:28:23.541Z,25.33
2023-04-27T08:30:55.378Z,23.96
2023-04-27T08:33:29.223Z,24.38
2023-04-27T08:36:05.173Z,23.49
2023-04-27T08:38:39.733Z,23.59
2023-04-27T08:41:21.433Z,24.25
2023-04-27T08:43:54.213Z,23.68
2023-04-27T08:46:37.815Z,23.53
2023-04-27T08:49:10.049Z,24.10
2023-04-27T08:51:42.790Z,24.39
2023-04-27T08:54:14.464Z,23.68
2023-04-27T08:56:46.595Z,24.13
2023-04-27T08:59:21.559Z,24.76
2023-04-27T09:01:54.906Z,25.15
2023-04-27T09:04:37.908Z,24.23
2023-04-27T09:07:18.171Z,24.20
2023-04-27T09:09:50.324Z,23.66
2023-04-27T09:12:28.495Z,24.21
2023-04-27T09:15:06.245Z,25.17
2023-04-27T09:17:41.338Z,25.50
2023-04-27T09:20:13.651Z,25.69
2023-04-27T09:22:51.688Z,24.56
2023-04-27T09:25:33.955Z,24.45
2023-04-27T09:28:14.417Z,24.34
2023-04-27T09:31:09.678Z,23.44
2023-04-27T09:33:41.744Z,23.77
2023-04-27T09:36:14.937Z,24.09
2023-04-27T09:38:47.284Z,24.70
2023-04-27T09:41:19.467Z,25.06
2023-04-27T09:43:57.068Z,24.37
2023-04-27T09:46:29.958Z,24.65
2023-04-27T09:49:04.938Z,25.02
2023-04-27T09:51:36.660Z,25.36
2023-04-27T09:54:11.821Z,24.98
2023-04-27T09:57:16.007Z,24.62
2023-04-27T10:00:11.087Z,24.61
2023-04-27T10:03:15.085Z,25.12
2023-04-27T10:06:28.790Z,26.24
2023-04-27T10:09:07.066Z,26.70
2023-04-27T10:12:00.593Z,27.46
2023-04-27T10:14:33.726Z,28.04
2023-04-27T10:17:11.086Z,28.27
2023-04-27T10:19:57.340Z,29.53
2023-04-27T10:22:56.973Z,29.48
2023-04-27T10:25:30.672Z,28.40
2023-04-27T10:28:03.143Z,28.74
2023-04-27T10:30:38.174Z,28.61
2023-04-27T10:33:14.147Z,28.41
2023-04-27T10:36:00.287Z,28.19
2023-04-27T10:38:33.116Z,28.38
2023-04-27T10:41:07.529Z,28.21
2023-04-27T10:44:32.621Z,27.23
2023-04-27T10:47:19.945Z,27.62
2023-04-27T10:50:00.322Z,28.22
2023-04-27T10:52:34.901Z,27.93
2023-04-27T10:55:13.787Z,27.53
2023-04-27T10:57:47.748Z,27.04
2023-04-27T11:00:25.402Z,26.57
2023-04-27T11:03:11.581Z,25.66
2023-04-27T11:05:45.286Z,25.66
2023-04-27T11:08:18.913Z,25.72
2023-04-27T11:10:52.085Z,25.63
2023-04-27T11:13:25.464Z,25.57
2023-04-27T11:15:59.439Z,25.29
2023-04-27T11:18:35.412Z,24.99
2023-04-27T11:21:15.236Z,22.89
2023-04-27T11:23:49.351Z,23.03
2023-04-27T11:26:22.553Z,24.24
2023-04-27T11:29:05.680Z,25.07
2023-04-27T11:31:49.710Z,25.30
2023-04-27T11:34:34.321Z,26.12
2023-04-27T11:37:18.062Z,25.52
2023-04-27T11:39:54.102Z,25.14
2023-04-27T11:42:31.605Z,25.64
2023-04-27T11:45:08.308Z,25.48
2023-04-27T11:47:46.623Z,25.31
2023-04-27T11:50:19.234Z,24.58
2023-04-27T11:52:54.831Z,24.98
2023-04-27T11:55:26.798Z,24.63
2023-04-27T11:57:59.302Z,25.01
2023-04-27T12:00:31.225Z,25.79
2023-04-27T12:03:03.991Z,25.67
2023-04-27T12:05:36.010Z,25.42
2023-04-27T12:08:07.763Z,25.78
2023-04-27T12:10:40.193Z,26.13
2023-04-27T12:13:12.581Z,26.29
2023-04-27T12:15:44.572Z,26.23
2023-04-27T12:18:16.417Z,27.07
2023-04-27T12:20:48.234Z,27.29
2023-04-27T12:23:21.387Z,27.55
2023-04-27T12:25:53.544Z,27.04
2023-04-27T12:28:25.227Z,27.10
2023-04-27T12:31:04.005Z,26.54
2023-04-27T12:33:37.062Z,25.86
2023-04-27T12:36:08.828Z,26.31
2023-04-27T12:38:41.645Z,25.84
2023-04-27T12:41:13.428Z,26.52
2023-04-27T12:43:45.970Z,25.53
2023-04-27T12:46:20.680Z,25.59
2023-04-27T12:48:52.538Z,26.39
2023-04-27T12:51:24.368Z,26.41
2023-04-27T12:54:00.903Z,26.96
2023-04-27T12:56:34.323Z,26.09
2023-04-27T12:59:07.518Z,26.08
2023-04-27T13:01:42.215Z,25.94
2023-04-27T13:04:20.656Z,25.51
2023-04-27T13:06:53.116Z,25.76
2023-04-27T13:09:24.882Z,26.02
2023-04-27T13:11:58.714Z,25.00
2023-04-27T13:14:34.814Z,24.96
2023-04-27T13:17:09.712Z,24.75
2023-04-27T13:19:41.419Z,24.70
2023-04-27T13:22:13.380Z,24.73
2023-04-27T13:24:45.048Z,25.06
2023-04-27T13:27:17.303Z,25.70
2023-04-27T13:29:51.929Z,26.16
2023-04-27T13:32:23.627Z,25.69
2023-04-27T13:34:55.446Z,25.52
2023-04-27T13:37:27.949Z,26.16
2023-04-27T13:39:59.710Z,26.11
2023-04-27T13:42:31.458Z,26.40
2023-04-27T13:45:04.673Z,25.69
2023-04-27T13:47:42.381Z,26.53
2023-04-27T13:50:14.359Z,26.66
2023-04-27T13:52:46.356Z,26.10
2023-04-27T13:55:18.339Z,26.44
2023-04-27T13:57:50.067Z,26.10
2023-04-27T14:00:21.873Z,25.95
2023-04-27T14:02:56.236Z,26.01
2023-04-27T14:05:28.134Z,26.11
2023-04-27T14:08:03.288Z,25.91
2023-04-27T14:10:37.060Z,26.22
2023-04-27T14:13:09.157Z,27.25
2023-04-27T14:15:41.548Z,27.45
2023-04-27T14:18:13.453Z,27.32
2023-04-27T14:20:45.430Z,27.12
2023-04-27T14:23:17.205Z,27.46
2023-04-27T14:25:48.901Z,27.56
2023-04-27T14:28:20.698Z,27.80
2023-04-27T14:30:52.448Z,27.14
2023-04-27T14:33:24.223Z,26.94
2023-04-27T14:35:56.556Z,27.37
2023-04-27T14:38:31.827Z,27.50
2023-04-27T14:41:03.575Z,27.23
2023-04-27T14:43:38.564Z,27.19
2023-04-27T14:46:20.218Z,27.21
2023-04-27T14:48:53.048Z,27.53
2023-04-27T14:51:24.766Z,27.57
2023-04-27T14:53:56.738Z,27.68
2023-04-27T14:56:28.446Z,27.52
2023-04-27T14:59:02.005Z,27.25
2023-04-27T15:01:33.779Z,27.33
2023-04-27T15:04:05.778Z,27.58
2023-04-27T15:06:37.910Z,27.78
2023-04-27T15:09:09.781Z,27.73
2023-04-27T15:11:44.911Z,27.89
2023-04-27T15:14:17.685Z,27.75
2023-04-27T15:16:49.828Z,27.38
2023-04-27T15:19:21.621Z,27.05
2023-04-27T15:21:53.355Z,27.50
2023-04-27T15:24:29.156Z,27.47
2023-04-27T15:27:01.596Z,27.72
2023-04-27T15:29:33.585Z,27.89
2023-04-27T15:32:05.452Z,27.25
2023-04-27T15:34:37.340Z,26.90
2023-04-27T15:37:10.624Z,26.54
2023-04-27T15:39:43.209Z,26.55
2023-04-27T15:42:16.775Z,26.25
2023-04-27T15:44:48.498Z,26.70
2023-04-27T15:47:20.244Z,27.07
2023-04-27T15:49:57.464Z,27.55
2023-04-27T15:52:29.792Z,27.39
2023-04-27T15:55:01.797Z,27.54
2023-04-27T15:57:34.940Z,27.32
2023-04-27T16:00:10.341Z,27.22
2023-04-27T16:02:44.856Z,27.03
2023-04-27T16:05:20.697Z,27.11
2023-04-27T16:07:52.294Z,26.97
2023-04-27T16:10:24.210Z,26.98
2023-04-27T16:12:58.899Z,27.14
2023-04-27T16:15:30.644Z,27.60
2023-04-27T16:18:02.605Z,28.02
2023-04-27T16:20:36.517Z,28.15
2023-04-27T16:23:08.739Z,28.39
2023-04-27T16:25:41.542Z,28.53
2023-04-27T16:28:13.314Z,28.68
2023-04-27T16:30:45.239Z,29.17
2023-04-27T16:33:19.318Z,29.85
2023-04-27T16:35:51.883Z,29.80
2023-04-27T16:38:23.896Z,30.05
2023-04-27T16:40:56.378Z,30.02
2023-04-27T16:43:29.920Z,30.17
2023-04-27T16:46:01.737Z,30.25
2023-04-27T16:48:33.609Z,30.54
2023-04-27T16:51:09.397Z,30.43
2023-04-27T16:53:41.382Z,30.71
2023-04-27T16:56:14.237Z,30.60
2023-04-27T16:58:48.414Z,31.05
2023-04-27T17:01:20.244Z,30.85
2023-04-27T17:03:52.180Z,30.63
2023-04-27T17:06:28.406Z,31.26
2023-04-27T17:09:00.199Z,31.36
2023-04-27T17:11:32.443Z,30.88
2023-04-27T17:14:04.205Z,31.56
2023-04-27T17:16:36.006Z,31.73
2023-04-27T17:19:07.764Z,31.88
2023-04-27T17:21:39.513Z,32.11
2023-04-27T17:24:11.424Z,32.40
2023-04-27T17:26:43.258Z,32.20
2023-04-27T17:29:17.939Z,32.13
2023-04-27T17:31:50.578Z,32.67
2023-04-27T17:34:23.403Z,32.56
2023-04-27T17:36:55.273Z,32.62
2023-04-27T17:39:27.102Z,32.68
2023-04-27T17:41:59.239Z,32.63
2023-04-27T17:44:32.674Z,32.63
2023-04-27T17:47:06.439Z,33.04
2023-04-27T17:49:39.715Z,33.00
2023-04-27T17:52:11.516Z,32.85
2023-04-27T17:54:43.358Z,32.85
2023-04-27T17:57:15.194Z,33.14
2023-04-27T17:59:49.988Z,33.68
2023-04-27T18:02:22.250Z,33.66
2023-04-27T18:04:53.993Z,33.79
2023-04-27T18:07:25.804Z,33.91
2023-04-27T18:10:02.379Z,34.16
2023-04-27T18:12:34.872Z,34.40
2023-04-27T18:15:09.365Z,34.27
2023-04-27T18:17:41.905Z,34.48
2023-04-27T18:20:15.310Z,34.73
2023-04-27T18:22:48.574Z,35.17
2023-04-27T18:25:20.417Z,35.09
2023-04-27T18:27:55.506Z,35.08
2023-04-27T18:30:27.348Z,35.16
2023-04-27T18:32:59.394Z,35.09
2023-04-27T18:35:31.404Z,35.50
2023-04-27T18:38:03.661Z,35.81
2023-04-27T18:40:41.457Z,35.73
2023-04-27T18:43:13.290Z,35.84
2023-04-27T18:45:45.251Z,36.04
2023-04-27T18:48:17.637Z,36.29
2023-04-27T18:50:49.508Z,36.69
2023-04-27T18:53:21.604Z,36.60
2023-04-27T18:55:53.293Z,36.87
2023-04-27T18:58:25.048Z,36.73
2023-04-27T19:00:59.073Z,36.88
2023-04-27T19:03:31.082Z,36.77
2023-04-27T19:06:03.105Z,37.09
2023-04-27T19:08:37.825Z,37.11
2023-04-27T19:11:09.664Z,37.32
2023-04-27T19:13:43.276Z,37.57
2023-04-27T19:16:15.495Z,37.89
2023-04-27T19:18:50.444Z,37.91
2023-04-27T19:21:22.549Z,38.18
2023-04-27T19:23:54.668Z,38.14
2023-04-27T19:26:29.089Z,38.17
2023-04-27T19:29:05.637Z,38.64
2023-04-27T19:31:37.492Z,38.57
2023-04-27T19:34:09.352Z,38.70
2023-04-27T19:36:41.065Z,38.60
2023-04-27T19:39:14.047Z,38.72
2023-04-27T19:41:46.132Z,39.14
2023-04-27T19:44:19.431Z,39.51
2023-04-27T19:46:52.220Z,39.81
2023-04-27T19:49:24.076Z,40.47
2023-04-27T19:51:55.935Z,40.26
2023-04-27T19:54:31.120Z,41.04
2023-04-27T19:57:03.950Z,41.07
2023-04-27T19:59:36.219Z,40.86
2023-04-27T20:02:08.151Z,41.19
2023-04-27T20:04:41.447Z,41.63
2023-04-27T20:07:13.394Z,42.08
2023-04-27T20:09:47.138Z,42.35
2023-04-27T20:12:40.447Z,42.57
2023-04-27T20:15:10.659Z,42.30
2023-04-27T20:17:42.464Z,42.58
2023-04-27T20:20:14.840Z,42.78
2023-04-27T20:22:46.967Z,43.12
2023-04-27T20:25:19.627Z,43.76
2023-04-27T20:27:51.865Z,43.80
2023-04-27T20:30:23.661Z,43.59
2023-04-27T20:32:56.465Z,43.91
2023-04-27T20:35:33.636Z,44.07
2023-04-27T20:38:10.925Z,44.66
2023-04-27T20:40:42.706Z,44.30
2023-04-27T20:43:15.753Z,44.26
2023-04-27T20:45:47.549Z,44.38
2023-04-27T20:48:19.379Z,44.09
2023-04-27T20:50:51.839Z,44.36
2023-04-27T20:53:23.748Z,44.39
2023-04-27T20:55:56.952Z,44.45
2023-04-27T20:58:28.693Z,45.11
2023-04-27T21:01:03.470Z,44.50
2023-04-27T21:03:35.772Z,44.87
2023-04-27T21:06:07.618Z,45.15
2023-04-27T21:08:40.409Z,45.38
2023-04-27T21:11:18.054Z,46.06
2023-04-27T21:13:50.041Z,45.67
2023-04-27T21:16:24.607Z,45.48
2023-04-27T21:18:56.809Z,44.97
2023-04-27T21:21:28.650Z,45.24
2023-04-27T21:24:07.417Z,45.27
2023-04-27T21:26:40.060Z,45.87
2023-04-27T21:29:14.442Z,46.49
2023-04-27T21:31:46.256Z,46.41
2023-04-27T21:34:18.111Z,46.34
2023-04-27T21:36:53.001Z,46.27
2023-04-27T21:39:24.619Z,46.67
2023-04-27T21:41:56.377Z,47.04
2023-04-27T21:44:28.153Z,46.41
2023-04-27T21:47:01.257Z,46.81
2023-04-27T21:49:32.968Z,47.34
2023-04-27T21:52:05.000Z,48.51
2023-04-27T21:54:37.425Z,48.54
2023-04-27T21:57:09.181Z,48.78
2023-04-27T21:59:41.060Z,48.60
2023-04-27T22:02:13.652Z,48.46
2023-04-27T22:04:46.824Z,48.74
2023-04-27T22:07:21.637Z,48.30
2023-04-27T22:09:55.396Z,48.56
2023-04-27T22:12:27.209Z,48.27
2023-04-27T22:14:58.932Z,48.80
2023-04-27T22:17:30.684Z,49.23
2023-04-27T22:20:05.009Z,49.79
2023-04-27T22:22:37.816Z,50.28
2023-04-27T22:25:14.060Z,49.74
2023-04-27T22:27:45.806Z,49.89
2023-04-27T22:30:17.640Z,50.68
2023-04-27T22:32:50.298Z,51.02
2023-04-27T22:35:27.475Z,51.15
2023-04-27T22:38:00.186Z,51.36
2023-04-27T22:40:31.925Z,51.95
2023-04-27T22:43:03.884Z,52.07
2023-04-27T22:45:38.095Z,51.49
2023-04-27T22:48:11.119Z,51.86
2023-04-27T22:50:43.197Z,51.86
2023-04-27T22:53:14.967Z,50.69
2023-04-27T22:55:46.724Z,51.02
2023-04-27T22:58:18.493Z,51.21
2023-04-27T23:00:53.239Z,51.46
2023-04-27T23:03:25.048Z,51.61
2023-04-27T23:05:59.429Z,52.21
2023-04-27T23:08:31.472Z,51.32
2023-04-27T23:11:03.752Z,51.82
2023-04-27T23:13:35.515Z,51.59
2023-04-27T23:16:07.841Z,51.10
2023-04-27T23:18:39.679Z,52.13
2023-04-27T23:21:11.857Z,51.81
2023-04-27T23:23:43.710Z,51.55
2023-04-27T23:26:16.615Z,51.44
2023-04-27T23:28:49.725Z,51.97
2023-04-27T23:31:23.128Z,52.43
2023-04-27T23:33:54.942Z,51.98
2023-04-27T23:36:26.751Z,51.96
2023-04-27T23:38:58.468Z,52.25
2023-04-27T23:41:30.209Z,51.77
2023-04-27T23:44:08.546Z,52.11
2023-04-27T23:46:40.289Z,52.28
2023-04-27T23:49:12.153Z,52.32
2023-04-27T23:51:43.885Z,51.77
2023-04-27T23:54:16.224Z,52.20
2023-04-27T23:56:50.558Z,52.60
2023-04-27T23:59:22.302Z,52.40
